createdAt,value
2023-01-13T00:01:58.472Z,12.00
2023-01-13T00:04:29.098Z,10.60
2023-01-13T00:06:59.687Z,13.75
2023-01-13T00:09:30.141Z,361.58
2023-01-13T00:12:00.680Z,13.32
2023-01-13T00:14:37.021Z,8.85
2023-01-13T00:17:07.877Z,11.45
2023-01-13T00:19:38.349Z,11.70
2023-01-13T00:22:09.538Z,11.23
2023-01-13T00:24:39.972Z,12.50
2023-01-13T00:27:10.576Z,13.95
2023-01-13T00:29:44.024Z,12.68
2023-01-13T00:32:15.738Z,13.75
2023-01-13T00:34:46.161Z,12.25
2023-01-13T00:37:16.818Z,13.25
2023-01-13T00:39:47.246Z,14.48
2023-01-13T00:42:30.396Z,12.98
2023-01-13T00:45:03.979Z,13.32
2023-01-13T00:47:36.025Z,13.20
2023-01-13T00:50:06.641Z,10.85
2023-01-13T00:52:37.491Z,10.05
2023-01-13T00:55:09.106Z,11.73
2023-01-13T00:57:40.284Z,24.23
2023-01-13T01:00:15.349Z,14.52
2023-01-13T01:02:45.925Z,17.40
2023-01-13T01:05:16.532Z,19.15
2023-01-13T01:07:47.203Z,13.57
2023-01-13T01:10:18.021Z,11.30
2023-01-13T01:12:48.571Z,12.07
2023-01-13T01:15:21.793Z,14.82
2023-01-13T01:17:52.429Z,14.90
2023-01-13T01:20:22.988Z,16.48
2023-01-13T01:22:53.557Z,20.85
2023-01-13T01:25:24.051Z,21.15
2023-01-13T01:27:54.628Z,22.42
2023-01-13T01:30:27.769Z,20.85
2023-01-13T01:32:58.401Z,19.33
2023-01-13T01:35:28.940Z,17.20
2023-01-13T01:37:59.501Z,17.33
2023-01-13T01:40:30.770Z,15.85
2023-01-13T01:43:13.713Z,15.93
2023-01-13T01:45:46.755Z,15.73
2023-01-13T01:48:17.691Z,18.05
2023-01-13T01:50:48.423Z,21.95
2023-01-13T01:53:22.480Z,20.73
2023-01-13T01:55:53.763Z,25.48
2023-01-13T01:58:28.987Z,24.40
2023-01-13T02:01:02.631Z,23.40
2023-01-13T02:03:33.390Z,21.75
2023-01-13T02:06:04.164Z,23.90
2023-01-13T02:08:34.750Z,20.73
2023-01-13T02:11:05.231Z,20.33
2023-01-13T02:13:33.230Z,20.50
2023-01-13T02:16:14.848Z,21.52
2023-01-13T02:18:59.343Z,20.48
2023-01-13T02:22:02.778Z,17.73
2023-01-13T02:24:59.649Z,24.02
2023-01-13T02:27:52.338Z,22.67
2023-01-13T02:31:09.626Z,19.38
2023-01-13T02:36:20.979Z,15.13
2023-01-13T02:38:57.579Z,20.10
2023-01-13T02:41:45.788Z,23.45
2023-01-13T02:44:19.794Z,22.08
2023-01-13T02:47:00.838Z,22.75
2023-01-13T02:49:37.324Z,24.63
2023-01-13T02:52:14.146Z,18.45
2023-01-13T02:54:50.964Z,21.73
2023-01-13T02:57:23.690Z,22.65
2023-01-13T02:59:58.972Z,21.67
2023-01-13T03:02:32.087Z,20.90
2023-01-13T03:05:03.657Z,21.75
2023-01-13T03:08:06.759Z,25.30
2023-01-13T03:10:50.797Z,20.70
2023-01-13T03:13:36.503Z,23.33
2023-01-13T03:16:18.510Z,16.67
2023-01-13T03:19:00.462Z,15.63
2023-01-13T03:21:38.901Z,16.10
2023-01-13T03:24:16.192Z,13.88
2023-01-13T03:26:51.725Z,17.17
2023-01-13T03:32:01.117Z,15.07
2023-01-13T03:34:38.404Z,15.70
2023-01-13T03:37:11.462Z,19.38
2023-01-13T03:39:47.063Z,18.40
2023-01-13T03:42:22.190Z,18.83
2023-01-13T03:44:55.797Z,13.68
2023-01-13T03:47:31.941Z,18.27
2023-01-13T03:50:08.505Z,19.33
2023-01-13T03:52:43.548Z,16.70
2023-01-13T03:55:18.836Z,17.33
2023-01-13T03:57:56.404Z,17.90
2023-01-13T04:00:31.491Z,17.33
2023-01-13T04:03:07.998Z,18.85
2023-01-13T04:05:46.440Z,18.65
2023-01-13T04:08:23.127Z,19.90
2023-01-13T04:10:58.241Z,19.60
2023-01-13T04:13:33.186Z,23.10
2023-01-13T04:16:04.317Z,21.25
2023-01-13T04:18:34.908Z,19.25
2023-01-13T04:21:09.044Z,20.15
2023-01-13T04:23:39.615Z,15.30
2023-01-13T04:26:10.179Z,15.00
2023-01-13T04:28:41.046Z,19.75
2023-01-13T04:31:11.655Z,17.55
2023-01-13T04:33:42.422Z,19.70
2023-01-13T04:36:15.997Z,18.67
2023-01-13T04:38:46.739Z,17.65
2023-01-13T04:41:17.390Z,17.50
2023-01-13T04:43:47.928Z,24.88
2023-01-13T04:46:18.726Z,17.17
2023-01-13T04:48:49.397Z,18.13
2023-01-13T04:51:22.892Z,16.02
2023-01-13T04:53:53.464Z,20.65
2023-01-13T04:56:24.076Z,18.42
2023-01-13T04:58:54.676Z,16.75
2023-01-13T05:01:25.365Z,20.10
2023-01-13T05:03:56.084Z,21.20
2023-01-13T05:06:29.380Z,16.20
2023-01-13T05:09:00.435Z,19.85
2023-01-13T05:11:43.254Z,20.23
2023-01-13T05:14:26.199Z,22.33
2023-01-13T05:17:04.764Z,26.45
2023-01-13T05:19:39.399Z,29.33
2023-01-13T05:22:24.869Z,29.08
2023-01-13T05:25:22.632Z,20.70
2023-01-13T05:27:54.057Z,19.23
2023-01-13T05:30:25.751Z,26.30
2023-01-13T05:32:56.579Z,27.77
2023-01-13T05:35:29.309Z,31.95
2023-01-13T05:38:02.547Z,31.73
2023-01-13T05:40:45.372Z,33.38
2023-01-13T05:43:24.941Z,36.00
2023-01-13T05:45:59.863Z,45.45
2023-01-13T05:48:32.532Z,31.25
2023-01-13T05:51:03.305Z,151.00
2023-01-13T05:53:37.331Z,189.68
2023-01-13T05:56:08.922Z,84.53
2023-01-13T05:58:39.525Z,61.20
2023-01-13T06:01:13.685Z,85.88
2023-01-13T06:03:44.311Z,63.60
2023-01-13T06:06:14.832Z,49.38
2023-01-13T06:08:48.054Z,63.35
2023-01-13T06:11:18.497Z,54.00
2023-01-13T06:13:49.052Z,45.25
2023-01-13T06:16:19.725Z,50.58
2023-01-13T06:18:50.311Z,49.38
2023-01-13T06:21:20.839Z,50.15
2023-01-13T06:23:53.967Z,42.38
2023-01-13T06:26:28.027Z,41.65
2023-01-13T06:28:58.576Z,39.65
2023-01-13T06:31:29.701Z,37.58
2023-01-13T06:34:02.652Z,36.72
2023-01-13T06:36:38.782Z,41.08
2023-01-13T06:39:14.632Z,47.88
2023-01-13T06:41:57.432Z,54.50
2023-01-13T06:44:28.209Z,55.03
2023-01-13T06:46:58.696Z,57.88
2023-01-13T06:49:29.525Z,53.60
2023-01-13T06:52:00.130Z,53.22
2023-01-13T06:54:34.789Z,57.03
2023-01-13T06:57:05.640Z,54.35
2023-01-13T06:59:36.951Z,66.15
2023-01-13T07:02:07.521Z,54.72
2023-01-13T07:04:38.204Z,58.17
2023-01-13T07:07:08.859Z,61.10
2023-01-13T07:09:42.311Z,74.30
2023-01-13T07:12:12.818Z,69.63
2023-01-13T07:14:55.686Z,56.40
2023-01-13T07:17:27.115Z,53.30
2023-01-13T07:19:58.270Z,57.13
2023-01-13T07:22:28.739Z,70.55
2023-01-13T07:25:01.919Z,59.08
2023-01-13T07:27:33.888Z,62.90
2023-01-13T07:30:04.540Z,68.00
2023-01-13T07:32:36.483Z,70.60
2023-01-13T07:35:08.178Z,59.08
2023-01-13T07:37:40.636Z,56.53
2023-01-13T07:40:15.167Z,54.88
2023-01-13T07:42:57.947Z,54.05
2023-01-13T07:45:29.626Z,56.92
2023-01-13T07:48:00.199Z,56.00
2023-01-13T07:50:30.878Z,65.53
2023-01-13T07:53:01.484Z,55.55
2023-01-13T07:55:34.976Z,56.80
2023-01-13T07:58:05.752Z,56.13
2023-01-13T08:00:36.408Z,59.78
2023-01-13T08:03:07.604Z,54.33
2023-01-13T08:05:38.757Z,59.35
2023-01-13T08:08:09.494Z,59.10
2023-01-13T08:10:42.634Z,55.30
2023-01-13T08:13:22.917Z,51.65
2023-01-13T08:15:55.066Z,55.92
2023-01-13T08:18:25.815Z,41.70
2023-01-13T08:20:57.831Z,41.83
2023-01-13T08:23:28.344Z,48.78
2023-01-13T08:26:03.439Z,41.08
2023-01-13T08:28:34.638Z,35.28
2023-01-13T08:31:06.904Z,43.15
2023-01-13T08:33:37.853Z,44.60
2023-01-13T08:36:09.675Z,44.22
2023-01-13T08:38:41.163Z,35.75
2023-01-13T08:41:15.966Z,40.80
2023-01-13T08:43:46.478Z,41.57
2023-01-13T08:46:17.089Z,34.80
2023-01-13T08:48:47.517Z,35.70
2023-01-13T08:51:20.299Z,34.85
2023-01-13T08:53:50.879Z,28.08
2023-01-13T08:56:24.248Z,29.48
2023-01-13T08:58:55.645Z,31.88
2023-01-13T09:01:27.112Z,39.33
2023-01-13T09:03:58.212Z,39.17
2023-01-13T09:06:28.869Z,31.30
2023-01-13T09:08:59.356Z,31.15
2023-01-13T09:11:47.088Z,43.72
2023-01-13T09:14:21.008Z,37.20
2023-01-13T09:16:51.654Z,32.78
2023-01-13T09:19:22.152Z,30.55
2023-01-13T09:21:53.061Z,39.08
2023-01-13T09:24:24.268Z,41.45
2023-01-13T09:26:57.499Z,43.65
2023-01-13T09:29:28.132Z,47.58
2023-01-13T09:31:59.441Z,41.20
2023-01-13T09:34:42.822Z,38.75
2023-01-13T09:37:13.295Z,47.88
2023-01-13T09:39:43.749Z,38.88
2023-01-13T09:42:39.157Z,38.55
2023-01-13T09:45:15.053Z,38.47
2023-01-13T09:47:56.073Z,35.05
2023-01-13T09:50:34.885Z,33.03
2023-01-13T09:53:05.679Z,34.83
2023-01-13T09:55:38.562Z,36.40
2023-01-13T09:58:17.014Z,41.78
2023-01-13T10:00:54.996Z,40.95
2023-01-13T10:03:29.059Z,38.97
2023-01-13T10:06:07.069Z,36.55
2023-01-13T10:08:40.984Z,39.60
2023-01-13T10:11:30.673Z,40.53
2023-01-13T10:14:06.008Z,30.17
2023-01-13T10:16:43.958Z,33.00
2023-01-13T10:19:20.568Z,32.25
2023-01-13T10:22:18.513Z,31.38
2023-01-13T10:25:12.103Z,34.72
2023-01-13T10:27:47.074Z,33.83
2023-01-13T10:30:31.363Z,36.33
2023-01-13T10:33:04.115Z,33.47
2023-01-13T10:35:52.988Z,32.03
2023-01-13T10:38:25.959Z,40.05
2023-01-13T10:40:58.152Z,30.58
2023-01-13T10:43:29.821Z,32.20
2023-01-13T10:46:06.623Z,34.53
2023-01-13T10:48:40.282Z,26.73
2023-01-13T10:51:21.528Z,24.75
2023-01-13T10:54:03.759Z,22.55
2023-01-13T10:56:36.127Z,24.40
2023-01-13T10:59:17.144Z,27.58
2023-01-13T11:02:13.131Z,20.83
2023-01-13T11:05:21.335Z,16.93
2023-01-13T11:07:56.516Z,16.58
2023-01-13T11:10:28.986Z,13.20
2023-01-13T11:13:08.853Z,15.38
2023-01-13T11:15:46.610Z,15.13
2023-01-13T11:18:31.654Z,16.10
2023-01-13T11:21:03.470Z,14.63
2023-01-13T11:23:40.247Z,13.75
2023-01-13T11:26:20.086Z,15.23
2023-01-13T11:28:55.245Z,11.43
2023-01-13T11:31:30.995Z,12.45
2023-01-13T11:34:11.056Z,10.05
2023-01-13T11:36:46.851Z,10.93
2023-01-13T11:39:24.953Z,13.65
2023-01-13T11:42:14.941Z,12.43
2023-01-13T11:44:52.205Z,15.70
2023-01-13T11:47:26.771Z,9.68
2023-01-13T11:50:00.091Z,7.70
2023-01-13T11:52:46.515Z,9.63
2023-01-13T11:55:29.468Z,7.28
2023-01-13T11:58:17.835Z,8.27
2023-01-13T12:01:05.996Z,8.95
2023-01-13T12:03:42.570Z,8.57
2023-01-13T12:06:24.646Z,8.23
2023-01-13T12:09:16.844Z,10.05
2023-01-13T12:12:14.733Z,9.65
2023-01-13T12:14:56.320Z,10.20
2023-01-13T12:17:36.230Z,8.65
2023-01-13T12:20:24.473Z,7.32
2023-01-13T12:23:02.373Z,7.85
2023-01-13T12:25:37.732Z,6.47
2023-01-13T12:30:47.069Z,7.68
2023-01-13T12:33:32.821Z,5.90
2023-01-13T12:36:09.217Z,5.45
2023-01-13T12:38:49.549Z,7.70
2023-01-13T12:41:39.029Z,6.90
2023-01-13T12:44:18.470Z,6.30
2023-01-13T12:46:56.123Z,5.47
2023-01-13T12:49:32.534Z,7.10
2023-01-13T12:52:17.944Z,7.90
2023-01-13T12:55:22.742Z,7.72
2023-01-13T12:58:01.885Z,7.97
2023-01-13T13:00:38.809Z,12.45
2023-01-13T13:03:30.802Z,11.73
2023-01-13T13:06:13.006Z,10.15
2023-01-13T13:08:53.938Z,9.65
2023-01-13T13:11:54.759Z,14.43
2023-01-13T13:14:55.071Z,12.68
2023-01-13T13:17:47.022Z,17.10
2023-01-13T13:20:47.616Z,9.85
2023-01-13T13:23:50.937Z,7.55
2023-01-13T13:26:39.157Z,6.47
2023-01-13T13:29:24.846Z,6.40
2023-01-13T13:32:14.107Z,7.22
2023-01-13T13:34:52.426Z,6.85
2023-01-13T13:37:58.275Z,8.88
2023-01-13T13:40:41.750Z,8.50
2023-01-13T13:43:30.465Z,12.70
2023-01-13T13:46:13.480Z,9.23
2023-01-13T13:48:54.655Z,8.20
2023-01-13T13:51:31.246Z,8.00
2023-01-13T13:54:02.974Z,10.20
2023-01-13T13:56:38.821Z,8.27
2023-01-13T13:59:14.248Z,8.88
2023-01-13T14:04:22.272Z,7.80
2023-01-13T14:06:54.347Z,8.98
2023-01-13T14:09:28.787Z,9.05
2023-01-13T14:12:01.539Z,7.82
2023-01-13T14:14:34.841Z,6.55
2023-01-13T14:17:08.029Z,6.15
2023-01-13T14:19:44.426Z,7.93
2023-01-13T14:22:19.495Z,6.55
2023-01-13T14:24:55.659Z,6.60
2023-01-13T14:27:28.234Z,6.70
2023-01-13T14:30:04.023Z,8.13
2023-01-13T14:32:38.206Z,8.70
2023-01-13T14:35:10.683Z,9.18
2023-01-13T14:37:44.242Z,8.48
2023-01-13T14:40:47.712Z,8.75
2023-01-13T14:43:21.282Z,9.60
2023-01-13T14:46:03.295Z,9.93
2023-01-13T14:48:36.271Z,11.68
2023-01-13T14:51:10.759Z,11.70
2023-01-13T14:53:46.423Z,12.15
2023-01-13T14:56:42.966Z,12.52
2023-01-13T14:59:43.362Z,11.77
2023-01-13T15:02:43.422Z,13.02
2023-01-13T15:05:34.021Z,16.23
2023-01-13T15:08:09.446Z,12.05
2023-01-13T15:10:48.668Z,23.05
2023-01-13T15:13:42.601Z,22.67
2023-01-13T15:16:22.354Z,23.15
2023-01-13T15:18:55.829Z,24.33
2023-01-13T15:21:26.829Z,17.88
2023-01-13T15:23:57.391Z,17.15
2023-01-13T15:26:29.976Z,17.73
2023-01-13T15:29:01.811Z,19.30
2023-01-13T15:31:32.491Z,19.08
2023-01-13T15:34:05.586Z,17.05
2023-01-13T15:36:38.119Z,18.40
2023-01-13T15:39:09.934Z,20.23
2023-01-13T15:41:52.765Z,24.50
2023-01-13T15:44:35.611Z,39.78
2023-01-13T15:47:09.926Z,45.70
2023-01-13T15:49:45.451Z,52.78
2023-01-13T15:52:22.983Z,44.10
2023-01-13T15:54:54.547Z,46.30
2023-01-13T15:57:27.787Z,72.05
2023-01-13T16:00:00.706Z,85.75
2023-01-13T16:02:31.529Z,93.03
2023-01-13T16:05:04.826Z,97.15
2023-01-13T16:07:35.747Z,89.32
2023-01-13T16:10:07.554Z,85.63
2023-01-13T16:12:38.273Z,81.97
2023-01-13T16:15:09.730Z,77.53
2023-01-13T16:17:40.791Z,78.18
2023-01-13T16:20:19.783Z,79.10
2023-01-13T16:22:50.367Z,66.38
2023-01-13T16:25:23.383Z,64.30
2023-01-13T16:27:54.724Z,67.65
2023-01-13T16:30:29.386Z,65.65
2023-01-13T16:33:00.674Z,64.85
2023-01-13T16:35:35.535Z,62.55
2023-01-13T16:38:19.512Z,67.90
2023-01-13T16:40:52.489Z,62.10
2023-01-13T16:43:23.271Z,65.95
2023-01-13T16:45:53.958Z,65.93
2023-01-13T16:48:24.714Z,63.83
2023-01-13T16:50:58.288Z,64.07
2023-01-13T16:53:29.142Z,75.22
2023-01-13T16:55:59.713Z,73.25
2023-01-13T16:58:30.526Z,67.40
2023-01-13T17:01:01.300Z,69.88
2023-01-13T17:03:36.081Z,77.47
2023-01-13T17:06:09.994Z,73.18
2023-01-13T17:08:40.852Z,69.10
2023-01-13T17:11:11.407Z,66.50
2023-01-13T17:13:42.209Z,67.15
2023-01-13T17:16:20.503Z,70.35
2023-01-13T17:18:52.036Z,64.40
2023-01-13T17:21:25.546Z,64.60
2023-01-13T17:23:56.289Z,67.82
2023-01-13T17:26:37.448Z,60.85
2023-01-13T17:29:09.127Z,73.25
2023-01-13T17:31:39.965Z,74.28
2023-01-13T17:34:15.176Z,79.05
2023-01-13T17:36:48.984Z,77.22
2023-01-13T17:39:21.828Z,76.20
2023-01-13T17:41:52.841Z,83.65
2023-01-13T17:44:26.631Z,73.95
2023-01-13T17:46:57.109Z,71.70
2023-01-13T17:49:27.928Z,85.38
2023-01-13T17:52:01.184Z,85.47
2023-01-13T17:54:31.796Z,110.88
2023-01-13T17:57:02.354Z,83.90
2023-01-13T17:59:33.099Z,79.15
2023-01-13T18:02:03.968Z,77.53
2023-01-13T18:04:35.029Z,73.25
2023-01-13T18:07:08.591Z,77.35
2023-01-13T18:09:40.111Z,77.88
2023-01-13T18:12:10.985Z,100.75
2023-01-13T18:14:42.033Z,93.40
2023-01-13T18:17:12.922Z,81.25
2023-01-13T18:19:55.882Z,80.38
2023-01-13T18:22:41.317Z,75.47
2023-01-13T18:25:27.601Z,73.30
2023-01-13T18:27:59.154Z,57.08
2023-01-13T18:30:29.971Z,65.45
2023-01-13T18:33:01.053Z,62.10
2023-01-13T18:35:32.155Z,66.32
2023-01-13T18:38:07.681Z,75.70
2023-01-13T18:40:39.103Z,79.65
2023-01-13T18:43:07.321Z,71.95
2023-01-13T18:45:38.045Z,86.80
2023-01-13T18:48:09.235Z,95.00
2023-01-13T18:50:39.773Z,94.03
2023-01-13T18:53:13.991Z,84.50
2023-01-13T18:55:45.303Z,72.22
2023-01-13T18:58:16.184Z,87.20
2023-01-13T19:00:47.489Z,100.95
2023-01-13T19:03:29.538Z,129.32
2023-01-13T19:06:06.326Z,100.45
2023-01-13T19:08:39.585Z,91.78
2023-01-13T19:11:10.539Z,93.60
2023-01-13T19:13:42.001Z,89.95
2023-01-13T19:16:13.574Z,97.32
2023-01-13T19:18:44.989Z,77.72
2023-01-13T19:21:15.728Z,74.63
2023-01-13T19:23:49.272Z,77.95
2023-01-13T19:26:20.348Z,84.97
2023-01-13T19:28:51.481Z,79.88
2023-01-13T19:31:22.257Z,86.95
2023-01-13T19:33:52.991Z,77.80
2023-01-13T19:36:23.541Z,77.50
2023-01-13T19:38:56.917Z,89.45
2023-01-13T19:41:40.653Z,91.05
2023-01-13T19:44:26.661Z,82.45
2023-01-13T19:46:57.523Z,86.25
2023-01-13T19:49:28.608Z,74.85
2023-01-13T19:51:59.442Z,68.68
2023-01-13T19:54:32.860Z,53.03
2023-01-13T19:57:03.506Z,42.17
2023-01-13T19:59:36.819Z,45.80
2023-01-13T20:02:10.001Z,49.28
2023-01-13T20:04:46.087Z,54.75
2023-01-13T20:07:17.057Z,58.67
2023-01-13T20:09:50.455Z,76.25
2023-01-13T20:12:22.807Z,74.47
2023-01-13T20:14:53.883Z,63.47
2023-01-13T20:17:26.415Z,71.78
2023-01-13T20:19:58.310Z,69.28
2023-01-13T20:22:28.893Z,78.57
2023-01-13T20:25:02.401Z,76.13
2023-01-13T20:27:34.127Z,81.07
2023-01-13T20:30:04.796Z,81.15
2023-01-13T20:32:35.424Z,81.15
2023-01-13T20:35:06.300Z,79.05
2023-01-13T20:37:36.837Z,71.72
2023-01-13T20:40:13.573Z,73.97
2023-01-13T20:42:45.606Z,75.30
2023-01-13T20:45:21.022Z,77.10
2023-01-13T20:47:52.221Z,74.95
2023-01-13T20:50:23.173Z,75.68
2023-01-13T20:52:53.821Z,90.50
2023-01-13T20:55:27.181Z,87.70
2023-01-13T20:57:57.794Z,83.82
2023-01-13T21:00:29.973Z,98.60
2023-01-13T21:03:00.559Z,104.78
2023-01-13T21:05:31.270Z,96.60
2023-01-13T21:08:01.915Z,85.80
2023-01-13T21:10:35.685Z,87.75
2023-01-13T21:13:18.830Z,89.97
2023-01-13T21:15:51.175Z,81.90
2023-01-13T21:18:34.081Z,77.05
2023-01-13T21:21:11.867Z,76.00
2023-01-13T21:23:43.049Z,66.75
2023-01-13T21:26:19.767Z,74.43
2023-01-13T21:28:50.696Z,73.20
2023-01-13T21:31:21.364Z,66.10
2023-01-13T21:33:56.249Z,64.80
2023-01-13T21:36:26.866Z,54.83
2023-01-13T21:38:58.610Z,60.08
2023-01-13T21:41:44.211Z,63.90
2023-01-13T21:44:30.359Z,60.35
2023-01-13T21:47:13.339Z,74.70
2023-01-13T21:49:44.627Z,71.47
2023-01-13T21:52:15.750Z,67.72
2023-01-13T21:54:58.383Z,63.25
2023-01-13T21:57:31.678Z,64.32
2023-01-13T22:00:02.296Z,55.90
2023-01-13T22:02:36.825Z,49.40
2023-01-13T22:05:10.409Z,32.50
2023-01-13T22:07:42.352Z,37.88
2023-01-13T22:10:16.445Z,45.35
2023-01-13T22:12:50.024Z,38.45
2023-01-13T22:15:21.116Z,48.17
2023-01-13T22:17:55.095Z,46.08
2023-01-13T22:20:26.081Z,49.58
2023-01-13T22:22:56.798Z,52.83
2023-01-13T22:25:27.452Z,60.03
2023-01-13T22:28:03.982Z,59.88
2023-01-13T22:30:34.844Z,56.75
2023-01-13T22:33:05.465Z,49.70
2023-01-13T22:35:36.162Z,47.78
2023-01-13T22:38:06.814Z,46.08
2023-01-13T22:40:37.452Z,40.90
2023-01-13T22:43:10.629Z,40.35
2023-01-13T22:45:41.376Z,41.15
2023-01-13T22:48:12.431Z,41.10
2023-01-13T22:50:44.113Z,41.67
2023-01-13T22:53:14.708Z,43.88
2023-01-13T22:55:45.299Z,44.38
2023-01-13T22:58:18.525Z,49.00
2023-01-13T23:00:49.415Z,48.45
2023-01-13T23:03:20.121Z,49.45
2023-01-13T23:05:50.754Z,51.30
2023-01-13T23:08:21.449Z,45.00
2023-01-13T23:10:51.964Z,43.28
2023-01-13T23:13:25.130Z,46.85
2023-01-13T23:15:56.015Z,41.83
2023-01-13T23:18:28.480Z,26.38
2023-01-13T23:20:59.019Z,24.73
2023-01-13T23:23:29.644Z,26.98
2023-01-13T23:26:00.226Z,30.58
2023-01-13T23:28:33.721Z,33.03
2023-01-13T23:31:09.900Z,27.10
2023-01-13T23:33:41.502Z,35.35
2023-01-13T23:36:15.206Z,35.60
2023-01-13T23:38:46.538Z,37.40
2023-01-13T23:41:19.328Z,32.60
2023-01-13T23:43:56.720Z,38.83
2023-01-13T23:46:28.313Z,35.75
2023-01-13T23:48:58.999Z,37.45
2023-01-13T23:51:30.338Z,34.13
2023-01-13T23:54:01.499Z,32.85
2023-01-13T23:56:35.164Z,38.50
2023-01-13T23:59:08.517Z,33.53
